Time;durP1;ratioP1;P1;durP2;ratioP2;P2;SDS_P1;SDS_P2;PMS_P1;PMS_P2;Temp;Humidity;BMP_temperature;BMP_pressure;BME280_temperature;BME280_humidity;BME280_pressure;Samples;Min_cycle;Max_cycle;Signal;HPM_P1;HPM_P2
2023/08/15 00:02:13;;;;;;;7.10;4.32;;;;;;;21.38;100.00;100970.22;5022842;28;20634;-69
2023/08/15 00:04:38;;;;;;;8.25;4.40;;;;;;;21.35;100.00;100967.22;5020670;28;20060;-69
2023/08/15 00:07:04;;;;;;;9.25;4.68;;;;;;;21.34;100.00;100958.50;5019850;28;20075;-69
2023/08/15 00:09:33;;;;;;;7.95;3.90;;;;;;;21.27;100.00;100954.34;5016966;28;20033;-69
2023/08/15 00:12:01;;;;;;;6.10;3.95;;;;;;;21.23;100.00;100954.00;5013941;28;20041;-69
2023/08/15 00:14:27;;;;;;;8.38;3.88;;;;;;;21.22;100.00;100951.56;5016898;28;20045;-69
2023/08/15 00:16:53;;;;;;;8.32;3.63;;;;;;;21.22;100.00;100951.56;5015760;28;20045;-69
2023/08/15 00:19:18;;;;;;;9.32;3.95;;;;;;;21.18;100.00;100948.56;5019372;28;20060;-69
2023/08/15 00:21:43;;;;;;;8.38;3.78;;;;;;;21.17;100.00;100942.50;5017677;28;20543;-69
2023/08/15 00:24:09;;;;;;;6.72;3.63;;;;;;;21.18;100.00;100946.72;5014863;28;20584;-69
2023/08/15 00:26:34;;;;;;;11.45;3.42;;;;;;;21.19;100.00;100942.25;5014847;28;20096;-69
2023/08/15 00:29:00;;;;;;;7.00;3.70;;;;;;;21.18;100.00;100940.66;5031908;28;20035;-69
2023/08/15 00:31:27;;;;;;;7.00;4.45;;;;;;;21.17;100.00;100945.13;5018778;28;20029;-69
2023/08/15 00:33:52;;;;;;;6.22;4.03;;;;;;;21.15;100.00;100944.56;5017468;28;20033;-69
2023/08/15 00:36:18;;;;;;;7.13;4.15;;;;;;;21.14;100.00;100947.41;5020011;28;20400;-69
2023/08/15 00:38:43;;;;;;;8.32;4.32;;;;;;;21.12;100.00;100946.84;5012213;28;20069;-69
2023/08/15 00:41:10;;;;;;;8.48;3.90;;;;;;;21.09;100.00;100953.34;5021911;28;20074;-69
2023/08/15 00:43:36;;;;;;;10.57;3.63;;;;;;;21.09;100.00;100945.44;5017882;28;20374;-69
2023/08/15 00:46:04;;;;;;;7.10;4.15;;;;;;;21.09;100.00;100945.44;5010748;28;20391;-69
2023/08/15 00:48:31;;;;;;;9.00;3.92;;;;;;;21.08;100.00;100951.75;4998696;28;20433;-69
2023/08/15 00:51:00;;;;;;;8.32;3.95;;;;;;;21.09;100.00;100944.63;5005150;28;20029;-69
2023/08/15 00:53:27;;;;;;;7.68;4.13;;;;;;;21.07;100.00;100934.31;5007048;28;20030;-68
2023/08/15 00:55:55;;;;;;;6.43;3.85;;;;;;;21.11;100.00;100934.66;5002464;28;20038;-69
2023/08/15 00:58:21;;;;;;;9.13;4.35;;;;;;;21.04;100.00;100933.94;5002797;28;20022;-69
2023/08/15 01:00:47;;;;;;;6.28;4.00;;;;;;;21.04;100.00;100928.66;4997790;28;20027;-69
2023/08/15 01:03:13;;;;;;;6.78;3.85;;;;;;;21.03;100.00;100930.50;5000011;28;20036;-69
2023/08/15 01:05:39;;;;;;;6.63;4.00;;;;;;;21.04;100.00;100924.22;4999978;28;20042;-69
2023/08/15 01:08:07;;;;;;;7.85;4.22;;;;;;;21.04;100.00;100918.97;4988295;28;20040;-69
2023/08/15 01:10:32;;;;;;;6.97;3.58;;;;;;;21.03;100.00;100913.91;5000250;28;20501;-69
2023/08/15 01:13:05;;;;;;;7.47;3.90;;;;;;;21.04;100.00;100904.94;5000833;28;20044;-69
2023/08/15 01:15:32;;;;;;;;;;;;;;;21.01;100.00;100900.94;4999376;28;20034;-69
2023/08/15 01:18:22;;;;;;;6.95;3.75;;;;;;;20.97;100.00;100903.22;5003418;28;20495;-69
2023/08/15 01:20:49;;;;;;;7.32;3.60;;;;;;;20.96;100.00;100904.25;5001815;28;20053;-69
2023/08/15 01:23:20;;;;;;;6.47;3.50;;;;;;;20.95;100.00;100913.19;5002089;28;20065;-69
2023/08/15 01:25:48;;;;;;;5.93;4.00;;;;;;;20.95;100.00;100918.44;5000308;28;20092;-69
2023/08/15 01:28:15;;;;;;;10.35;4.47;;;;;;;20.92;100.00;100910.97;4995334;28;20045;-69
2023/08/15 01:30:58;;;;;;;9.95;4.20;;;;;;;20.92;100.00;100904.91;5001830;28;20061;-69
2023/08/15 01:33:36;;;;;;;7.38;3.90;;;;;;;20.91;100.00;100904.09;5001373;28;20120;-69
2023/08/15 01:36:07;;;;;;;8.32;3.95;;;;;;;20.90;100.00;100912.22;5001568;28;20508;-69
2023/08/15 01:38:38;;;;;;;6.93;3.78;;;;;;;20.92;100.00;100920.72;4995742;28;20049;-68
2023/08/15 01:41:07;;;;;;;6.10;3.97;;;;;;;20.90;100.00;100931.47;5002559;28;20463;-69
2023/08/15 01:43:33;;;;;;;9.98;4.40;;;;;;;20.91;100.00;100950.75;5000905;28;20044;-69
2023/08/15 01:46:00;;;;;;;6.00;3.70;;;;;;;20.89;100.00;100943.06;5001397;28;20522;-68
2023/08/15 01:48:27;;;;;;;8.82;3.80;;;;;;;20.94;100.00;100952.91;4995916;28;20030;-68
2023/08/15 01:50:52;;;;;;;7.80;4.00;;;;;;;20.90;100.00;100938.59;4997731;28;20037;-69
2023/08/15 01:53:19;;;;;;;7.60;4.15;;;;;;;20.90;100.00;100939.38;5001439;28;20034;-68
2023/08/15 01:55:45;;;;;;;7.20;3.90;;;;;;;20.91;100.00;100940.22;4994231;28;20073;-69
2023/08/15 01:58:10;;;;;;;6.18;3.90;;;;;;;20.95;100.00;100941.38;4996508;28;20533;-69
2023/08/15 02:00:36;;;;;;;6.95;3.80;;;;;;;20.97;100.00;100940.09;4992379;28;20116;-69
2023/08/15 02:03:01;;;;;;;6.20;4.10;;;;;;;20.99;100.00;100938.06;5002640;28;20041;-69
2023/08/15 02:05:26;;;;;;;7.82;3.67;;;;;;;21.00;100.00;100944.94;5000935;28;20042;-69
2023/08/15 02:07:52;;;;;;;6.05;3.60;;;;;;;21.02;100.00;100963.19;4998216;28;20484;-69
2023/08/15 02:10:17;;;;;;;8.80;3.70;;;;;;;21.03;100.00;100963.97;4997157;28;20451;-69
2023/08/15 02:12:47;;;;;;;5.65;3.70;;;;;;;21.01;100.00;100964.19;4999311;28;20737;-69
2023/08/15 02:15:12;;;;;;;8.00;4.20;;;;;;;21.01;100.00;100974.75;5000857;28;20038;-69
2023/08/15 02:17:39;;;;;;;7.50;4.53;;;;;;;21.02;100.00;100978.16;5001654;28;20127;-69
2023/08/15 02:20:06;;;;;;;7.93;4.35;;;;;;;21.09;100.00;100981.53;4999055;28;20411;-68
2023/08/15 02:22:31;;;;;;;10.25;5.55;;;;;;;21.15;100.00;100984.09;4999958;28;20026;-69
2023/08/15 02:24:57;;;;;;;8.95;5.47;;;;;;;21.20;100.00;100986.88;4999943;28;20425;-69
2023/08/15 02:27:25;;;;;;;12.85;5.75;;;;;;;21.18;100.00;100998.66;4998304;28;20064;-69
2023/08/15 02:29:51;;;;;;;9.18;5.75;;;;;;;21.24;100.00;100995.13;5000236;28;20026;-69
2023/08/15 02:32:18;;;;;;;12.73;6.72;;;;;;;21.31;100.00;100987.94;5019366;28;20046;-69
2023/08/15 02:34:44;;;;;;;10.18;7.25;;;;;;;21.28;100.00;100998.13;5023240;28;20029;-69
2023/08/15 02:37:09;;;;;;;9.68;6.60;;;;;;;21.35;100.00;101009.41;5020400;28;20373;-69
2023/08/15 02:39:35;;;;;;;11.82;5.97;;;;;;;21.35;100.00;101022.59;5020142;28;20046;-69
2023/08/15 02:42:00;;;;;;;9.65;5.22;;;;;;;21.33;100.00;101022.81;5022746;28;20451;-69
2023/08/15 02:44:26;;;;;;;9.13;4.50;;;;;;;21.27;100.00;100999.97;5023076;28;20416;-70
2023/08/15 02:46:51;;;;;;;6.32;4.07;;;;;;;21.40;100.00;101020.09;5021412;28;20038;-71
2023/08/15 02:49:17;;;;;;;7.47;4.45;;;;;;;21.29;100.00;101020.84;5021976;28;20088;-72
2023/08/15 02:51:42;;;;;;;9.30;5.32;;;;;;;21.25;100.00;100994.13;5021633;28;20500;-71
2023/08/15 02:54:08;;;;;;;10.40;4.78;;;;;;;21.19;100.00;100987.06;5024169;28;20080;-72
2023/08/15 02:56:33;;;;;;;10.05;5.22;;;;;;;21.06;100.00;100997.78;5023056;28;20050;-71
2023/08/15 02:58:58;;;;;;;8.43;4.72;;;;;;;21.07;100.00;100984.38;5021668;28;20041;-71
2023/08/15 03:01:24;;;;;;;10.13;4.85;;;;;;;21.04;100.00;100978.75;5021754;28;20034;-71
2023/08/15 03:03:49;;;;;;;8.60;5.05;;;;;;;21.03;100.00;100966.63;5018000;28;20030;-71
2023/08/15 03:06:15;;;;;;;10.20;4.53;;;;;;;20.93;100.00;100954.75;5023275;28;20627;-72
2023/08/15 03:08:40;;;;;;;9.98;4.80;;;;;;;20.94;100.00;100956.34;5022207;28;20044;-72
2023/08/15 03:11:06;;;;;;;7.72;4.55;;;;;;;20.88;100.00;100982.81;5021670;28;20034;-71
2023/08/15 03:13:31;;;;;;;12.27;5.25;;;;;;;20.84;100.00;100997.44;5026642;28;20029;-72
2023/08/15 03:15:58;;;;;;;9.73;5.07;;;;;;;20.89;100.00;101000.19;5024141;28;20041;-72
2023/08/15 03:18:27;;;;;;;8.13;4.53;;;;;;;20.76;100.00;100975.63;5023749;28;20074;-72
2023/08/15 03:20:57;;;;;;;8.98;4.97;;;;;;;20.75;100.00;100975.84;5016669;28;20029;-71
2023/08/15 03:23:23;;;;;;;13.32;5.45;;;;;;;20.73;100.00;100976.06;5029040;28;20212;-71
2023/08/15 03:25:55;;;;;;;8.40;4.78;;;;;;;20.81;100.00;100956.50;5020798;28;20041;-71
2023/08/15 03:28:20;;;;;;;11.60;5.65;;;;;;;20.77;100.00;100966.69;5023091;28;20033;-71
2023/08/15 03:30:46;;;;;;;11.00;5.15;;;;;;;20.70;100.00;100973.88;5020115;28;20687;-71
2023/08/15 03:33:12;;;;;;;10.38;5.20;;;;;;;20.69;100.00;100951.16;5028457;28;20037;-71
2023/08/15 03:35:47;;;;;;;12.38;5.38;;;;;;;20.66;100.00;100956.88;5016021;28;20436;-70
2023/08/15 03:38:20;;;;;;;12.32;4.78;;;;;;;20.58;100.00;100946.59;5017544;28;20033;-70
2023/08/15 03:40:47;;;;;;;9.80;4.90;;;;;;;20.54;100.00;100946.22;5024905;28;20041;-71
2023/08/15 03:43:13;;;;;;;12.88;4.95;;;;;;;20.52;100.00;100947.47;5024175;28;20033;-71
2023/08/15 03:45:40;;;;;;;11.10;4.93;;;;;;;20.46;100.00;100943.91;5022257;28;20048;-71
2023/08/15 03:48:09;;;;;;;10.20;4.60;;;;;;;20.48;100.00;100947.13;5001856;28;20045;-72
2023/08/15 03:50:36;;;;;;;9.38;5.05;;;;;;;20.43;100.00;100944.31;4999821;28;20064;-71
2023/08/15 03:53:02;;;;;;;8.02;4.68;;;;;;;20.38;100.00;100947.63;5016056;28;20030;-72
2023/08/15 03:55:31;;;;;;;9.38;4.57;;;;;;;20.37;100.00;100950.47;5019467;28;20048;-71
2023/08/15 03:57:57;;;;;;;7.07;4.50;;;;;;;20.38;100.00;100955.53;5020411;28;20033;-71
2023/08/15 04:00:24;;;;;;;12.98;4.70;;;;;;;20.36;100.00;100957.56;5014914;28;20038;-71
2023/08/15 04:02:50;;;;;;;10.45;4.82;;;;;;;20.37;100.00;100967.06;5018581;28;20048;-71
2023/08/15 04:05:17;;;;;;;8.35;4.32;;;;;;;20.38;100.00;100963.41;5002361;28;20037;-71
2023/08/15 04:07:43;;;;;;;10.20;4.53;;;;;;;20.38;100.00;100955.53;5020941;28;20071;-72
2023/08/15 04:10:11;;;;;;;9.63;4.53;;;;;;;20.39;100.00;100972.91;5019886;28;22363;-72
2023/08/15 04:12:37;;;;;;;10.95;5.32;;;;;;;20.40;100.00;100977.16;5018264;28;20060;-72
2023/08/15 04:15:03;;;;;;;12.57;5.68;;;;;;;20.31;100.00;100982.94;5022506;28;20159;-71
2023/08/15 04:17:30;;;;;;;9.95;5.00;;;;;;;20.23;100.00;100991.91;5017175;28;20037;-71
2023/08/15 04:19:55;;;;;;;10.15;5.78;;;;;;;20.21;100.00;101014.97;5022915;28;20052;-72
2023/08/15 04:22:21;;;;;;;11.95;5.95;;;;;;;20.19;100.00;101030.19;4998088;28;20448;-72
2023/08/15 04:24:46;;;;;;;10.73;6.38;;;;;;;20.15;100.00;101037.69;5000214;28;20034;-71
2023/08/15 04:27:12;;;;;;;15.27;5.40;;;;;;;20.06;100.00;101046.91;4996859;28;20542;-72
2023/08/15 04:29:38;;;;;;;7.72;4.57;;;;;;;19.99;100.00;101056.66;5002169;28;20523;-72
2023/08/15 04:32:03;;;;;;;8.27;4.35;;;;;;;19.84;100.00;101055.13;5003071;28;20042;-72
2023/08/15 04:34:29;;;;;;;7.80;4.18;;;;;;;19.78;100.00;101052.53;5000890;28;20607;-72
2023/08/15 04:36:54;;;;;;;8.43;3.85;;;;;;;19.67;100.00;101053.97;5002194;28;20030;-71
2023/08/15 04:39:21;;;;;;;7.07;3.80;;;;;;;19.65;100.00;101046.28;5003793;28;20452;-72
2023/08/15 04:41:47;;;;;;;7.50;3.25;;;;;;;19.65;100.00;101048.91;5012108;28;20445;-72
2023/08/15 04:44:13;;;;;;;6.65;3.55;;;;;;;19.68;100.00;101050.31;5004019;28;20117;-71
2023/08/15 04:46:39;;;;;;;5.72;2.75;;;;;;;19.71;100.00;101054.38;5011181;28;20472;-72
2023/08/15 04:49:05;;;;;;;8.05;2.85;;;;;;;19.71;100.00;101059.63;5019258;28;20140;-71
2023/08/15 04:51:30;;;;;;;7.18;2.80;;;;;;;19.74;100.00;101057.41;5008326;28;20042;-71
2023/08/15 04:53:56;;;;;;;7.68;2.85;;;;;;;19.74;100.00;101067.94;4999357;28;20517;-71
2023/08/15 04:56:23;;;;;;;13.15;3.10;;;;;;;19.72;100.00;101091.03;5010897;28;20041;-71
2023/08/15 04:58:49;;;;;;;6.05;3.58;;;;;;;19.72;100.00;101092.78;5022310;28;20041;-71
2023/08/15 05:01:14;;;;;;;8.45;3.13;;;;;;;19.69;100.00;101098.47;5020798;28;20049;-71
2023/08/15 05:03:41;;;;;;;6.40;2.80;;;;;;;19.62;100.00;101099.28;5020162;28;20376;-72
2023/08/15 05:06:07;;;;;;;7.82;2.92;;;;;;;19.60;100.00;101097.91;5020767;28;20041;-71
2023/08/15 05:08:32;;;;;;;6.68;2.70;;;;;;;19.58;100.00;101092.03;5020879;28;20033;-71
2023/08/15 05:10:58;;;;;;;6.18;2.95;;;;;;;19.58;100.00;101106.00;5017929;28;20049;-73
2023/08/15 05:13:24;;;;;;;6.43;2.78;;;;;;;19.56;100.00;101107.22;5021924;28;20033;-71
2023/08/15 05:15:50;;;;;;;7.15;3.22;;;;;;;19.51;100.00;101114.94;5016226;28;20137;-71
2023/08/15 05:18:16;;;;;;;5.45;3.28;;;;;;;19.48;100.00;101125.84;4999093;28;20037;-71
2023/08/15 05:20:42;;;;;;;3.83;2.88;;;;;;;19.48;100.00;101123.22;4995134;28;20041;-71
2023/08/15 05:23:08;;;;;;;8.27;3.13;;;;;;;19.48;100.00;101121.41;4997000;28;20077;-71
2023/08/15 05:25:34;;;;;;;9.25;2.95;;;;;;;19.47;100.00;101126.88;4998417;28;20044;-71
2023/08/15 05:28:04;;;;;;;3.50;2.30;;;;;;;19.47;100.00;101126.88;4997242;28;20038;-71
2023/08/15 05:30:31;;;;;;;8.93;2.63;;;;;;;19.46;100.00;101136.59;5014798;28;20408;-71
2023/08/15 05:32:58;;;;;;;6.55;2.85;;;;;;;19.46;100.00;101141.84;5000763;28;20034;-71
2023/08/15 05:35:23;;;;;;;6.15;3.15;;;;;;;19.42;100.00;101140.63;4999544;28;20091;-73
2023/08/15 05:37:49;;;;;;;7.68;2.97;;;;;;;19.34;100.00;101146.13;4998805;28;20064;-71
2023/08/15 05:40:15;;;;;;;5.53;2.90;;;;;;;19.25;100.00;101146.34;4998753;28;20488;-71
2023/08/15 05:42:41;;;;;;;8.65;2.97;;;;;;;19.23;100.00;101145.75;4994978;28;20480;-71
2023/08/15 05:45:07;;;;;;;5.32;3.05;;;;;;;19.25;100.00;101154.22;5002438;28;20036;-71
2023/08/15 05:47:32;;;;;;;7.60;2.90;;;;;;;19.28;100.00;101162.72;5003716;28;20050;-71
2023/08/15 05:49:57;;;;;;;6.00;2.60;;;;;;;19.31;100.00;101157.88;5000847;28;20037;-71
2023/08/15 05:52:23;;;;;;;7.07;3.05;;;;;;;19.35;100.00;101163.53;4998918;28;20041;-71
2023/08/15 05:54:48;;;;;;;5.75;2.92;;;;;;;19.38;100.00;101160.47;5001476;28;20523;-71
2023/08/15 05:57:14;;;;;;;7.57;2.83;;;;;;;19.39;100.00;101165.53;4999490;28;20033;-71
2023/08/15 05:59:39;;;;;;;7.18;2.95;;;;;;;19.39;100.00;101160.25;5001358;28;20484;-71
2023/08/15 06:02:05;;;;;;;5.20;2.83;;;;;;;19.35;100.00;101160.88;4999415;28;20575;-71
2023/08/15 06:04:30;;;;;;;5.85;2.95;;;;;;;19.32;100.00;101169.97;5002984;28;20046;-71
2023/08/15 06:06:56;;;;;;;7.78;2.53;;;;;;;19.30;100.00;101164.13;5013918;28;20452;-71
2023/08/15 06:09:22;;;;;;;7.03;3.13;;;;;;;19.31;100.00;101178.91;5005141;28;20021;-71
2023/08/15 06:11:47;;;;;;;8.27;3.55;;;;;;;19.31;100.00;101183.31;5002099;28;20050;-71
2023/08/15 06:14:12;;;;;;;6.45;2.95;;;;;;;19.30;100.00;101176.47;5008474;28;20099;-71
2023/08/15 06:16:38;;;;;;;5.20;2.60;;;;;;;19.33;100.00;101183.94;5003417;28;20042;-71
2023/08/15 06:19:04;;;;;;;6.45;2.47;;;;;;;19.34;100.00;101186.34;5004565;28;20050;-70
2023/08/15 06:21:29;;;;;;;5.63;2.70;;;;;;;19.38;100.00;101189.38;5000056;28;20099;-71
2023/08/15 06:23:54;;;;;;;9.77;3.20;;;;;;;19.43;100.00;101181.69;5004218;28;20033;-70
2023/08/15 06:26:20;;;;;;;8.27;3.15;;;;;;;19.39;100.00;101191.00;5003046;28;20085;-70
2023/08/15 06:28:45;;;;;;;6.45;3.22;;;;;;;19.38;100.00;101194.66;5005176;28;20029;-70
2023/08/15 06:31:11;;;;;;;5.15;2.90;;;;;;;19.41;100.00;101202.13;5004935;28;20042;-70
2023/08/15 06:33:36;;;;;;;10.13;3.35;;;;;;;19.45;100.00;101195.44;5004910;28;20042;-70
2023/08/15 06:36:02;;;;;;;9.23;3.25;;;;;;;19.48;100.00;101204.72;5003453;28;20030;-70
2023/08/15 06:38:27;;;;;;;7.70;3.20;;;;;;;19.45;100.00;101208.59;5002627;28;20040;-70
2023/08/15 06:40:53;;;;;;;5.38;2.55;;;;;;;19.51;100.00;101199.88;5002617;28;20033;-69
2023/08/15 06:43:18;;;;;;;9.88;4.30;;;;;;;19.64;100.00;101207.72;5004683;28;20100;-69
2023/08/15 06:45:44;;;;;;;7.47;2.80;;;;;;;19.61;100.00;101213.44;5001769;28;20080;-69
2023/08/15 06:48:09;;;;;;;7.05;3.42;;;;;;;19.71;100.00;101209.56;5000881;28;20052;-69
2023/08/15 06:50:35;;;;;;;7.05;2.95;;;;;;;19.77;100.00;101204.28;5001400;28;20528;-69
2023/08/15 06:53:00;;;;;;;10.02;3.70;;;;;;;19.97;100.00;101209.50;5000869;28;20176;-69
2023/08/15 06:55:26;;;;;;;6.72;2.95;;;;;;;20.15;100.00;101213.28;4998431;28;20045;-69
2023/08/15 06:57:53;;;;;;;6.40;2.97;;;;;;;20.39;100.00;101209.09;5002086;28;20034;-69
2023/08/15 07:00:19;;;;;;;14.68;4.47;;;;;;;20.50;100.00;101212.91;4995565;28;20035;-69
2023/08/15 07:02:45;;;;;;;7.57;3.28;;;;;;;20.43;100.00;101215.56;4999629;28;20029;-69
2023/08/15 07:05:10;;;;;;;9.18;3.88;;;;;;;20.64;100.00;101211.00;4997625;28;20527;-69
2023/08/15 07:07:37;;;;;;;8.10;3.22;;;;;;;20.84;100.00;101203.78;4997702;28;20049;-69
2023/08/15 07:10:06;;;;;;;7.68;2.97;;;;;;;20.93;100.00;101217.50;5002791;28;20026;-69
2023/08/15 07:12:32;;;;;;;7.07;2.53;;;;;;;21.16;100.00;101214.28;5001742;28;20073;-69
2023/08/15 07:14:58;;;;;;;9.18;3.05;;;;;;;21.57;99.54;101210.28;5000877;28;20030;-69
2023/08/15 07:17:23;;;;;;;7.72;2.88;;;;;;;22.45;95.21;101206.38;4994719;28;20046;-69
2023/08/15 07:19:49;;;;;;;9.73;3.45;;;;;;;23.19;89.20;101205.22;5003547;28;20416;-69
2023/08/15 07:22:14;;;;;;;9.85;2.90;;;;;;;23.68;85.34;101203.94;5001191;28;20045;-69
2023/08/15 07:24:40;;;;;;;15.23;3.40;;;;;;;24.01;82.10;101210.41;5002823;28;20103;-69
2023/08/15 07:27:05;;;;;;;8.18;2.20;;;;;;;24.41;80.77;101209.56;4999587;28;20038;-69
2023/08/15 07:29:31;;;;;;;7.85;2.70;;;;;;;24.82;78.99;101194.34;4994311;28;20018;-69
2023/08/15 07:31:56;;;;;;;8.05;2.63;;;;;;;25.19;76.62;101203.66;4992147;28;20505;-69
2023/08/15 07:34:22;;;;;;;6.55;2.50;;;;;;;25.40;74.83;101210.88;5001772;28;20040;-69
2023/08/15 07:36:48;;;;;;;5.93;2.03;;;;;;;25.69;74.09;101212.56;4992632;28;20038;-69
2023/08/15 07:39:13;;;;;;;8.25;2.55;;;;;;;26.03;71.85;101207.91;4995892;28;20057;-69
2023/08/15 07:41:39;;;;;;;9.15;2.20;;;;;;;26.15;70.38;101205.13;4992060;28;20120;-69
2023/08/15 07:44:04;;;;;;;8.30;2.05;;;;;;;26.40;70.89;101210.69;4995422;28;20037;-69
2023/08/15 07:46:30;;;;;;;7.88;2.40;;;;;;;26.33;68.20;101207.41;4994713;28;20038;-69
2023/08/15 07:48:55;;;;;;;6.43;1.88;;;;;;;26.74;67.34;101210.47;4991654;28;20044;-69
2023/08/15 07:51:22;;;;;;;7.95;2.10;;;;;;;26.73;66.96;101210.72;4992663;28;20033;-69
2023/08/15 07:53:47;;;;;;;8.77;2.10;;;;;;;26.97;66.38;101221.78;4992553;28;20026;-69
2023/08/15 07:56:13;;;;;;;4.30;1.60;;;;;;;27.17;66.03;101213.16;4995085;28;20458;-69
2023/08/15 07:58:38;;;;;;;6.13;1.73;;;;;;;27.22;66.52;101223.84;5000592;28;20057;-70
2023/08/15 08:01:04;;;;;;;4.80;1.33;;;;;;;27.52;64.22;101217.06;5003648;28;20037;-70
2023/08/15 08:03:29;;;;;;;9.25;1.42;;;;;;;27.60;59.98;101205.94;5001213;28;20037;-70
2023/08/15 08:05:55;;;;;;;4.72;2.05;;;;;;;27.85;61.24;101213.22;5004917;28;20041;-69
2023/08/15 08:08:20;;;;;;;7.40;1.83;;;;;;;27.74;59.97;101209.72;5001140;28;20117;-69
2023/08/15 08:10:46;;;;;;;5.32;1.58;;;;;;;27.84;62.45;101219.63;4997661;28;20038;-69
2023/08/15 08:13:16;;;;;;;2.95;1.10;;;;;;;27.90;61.07;101217.81;4997285;28;20524;-69
2023/08/15 08:15:42;;;;;;;5.97;1.42;;;;;;;28.10;60.48;101217.81;4996624;28;20025;-70
2023/08/15 08:18:07;;;;;;;5.95;1.58;;;;;;;28.34;58.02;101225.34;5001840;28;20407;-70
2023/08/15 08:20:33;;;;;;;5.72;1.75;;;;;;;28.50;58.88;101226.13;4997115;28;20046;-69
2023/08/15 08:22:58;;;;;;;7.45;1.40;;;;;;;27.83;60.84;101230.53;4996536;28;20042;-69
2023/08/15 08:25:24;;;;;;;6.47;2.35;;;;;;;27.58;60.74;101232.03;5003749;28;20060;-70
2023/08/15 08:27:50;;;;;;;8.05;1.42;;;;;;;27.74;60.68;101231.00;5016489;28;21228;-69
2023/08/15 08:30:18;;;;;;;8.23;1.70;;;;;;;27.55;59.51;101232.53;5014274;28;20079;-69
2023/08/15 08:32:44;;;;;;;9.73;2.33;;;;;;;28.14;57.69;101234.09;5016330;28;20037;-70
2023/08/15 08:35:10;;;;;;;6.72;2.22;;;;;;;28.41;58.82;101231.22;5017407;28;20065;-70
2023/08/15 08:37:37;;;;;;;4.63;1.80;;;;;;;28.56;60.06;101241.13;5016979;28;20121;-70
2023/08/15 08:40:04;;;;;;;4.63;1.60;;;;;;;28.53;58.90;101236.31;5011085;28;20060;-70
2023/08/15 08:42:30;;;;;;;3.17;1.05;;;;;;;28.85;56.92;101245.91;4993107;28;20091;-69
2023/08/15 08:44:55;;;;;;;4.40;1.40;;;;;;;29.04;54.94;101240.81;4999036;28;20045;-70
2023/08/15 08:47:25;;;;;;;3.25;1.77;;;;;;;29.26;52.86;101237.88;5011471;28;20052;-70
2023/08/15 08:49:52;;;;;;;5.70;1.30;;;;;;;29.07;52.74;101235.75;5016796;28;20381;-70
2023/08/15 08:52:18;;;;;;;3.95;1.17;;;;;;;28.92;54.14;101239.25;5015331;28;20072;-70
2023/08/15 08:54:44;;;;;;;3.13;1.10;;;;;;;29.07;54.06;101234.94;5014888;28;20025;-70
2023/08/15 08:57:11;;;;;;;6.25;1.50;;;;;;;29.42;55.20;101241.28;5018596;28;20029;-70
2023/08/15 08:59:37;;;;;;;7.55;1.60;;;;;;;29.66;54.02;101241.47;5019344;28;20040;-70
2023/08/15 09:02:02;;;;;;;4.93;1.38;;;;;;;29.66;53.54;101231.59;5017171;28;20073;-70
2023/08/15 09:04:28;;;;;;;4.68;1.60;;;;;;;29.28;54.51;101235.72;5019306;28;20699;-70
2023/08/15 09:06:54;;;;;;;3.10;1.27;;;;;;;29.46;53.64;101237.00;5011285;28;20048;-70
2023/08/15 09:09:19;;;;;;;5.72;1.17;;;;;;;29.63;52.73;101240.16;5013478;28;20479;-70
2023/08/15 09:11:47;;;;;;;7.90;1.88;;;;;;;29.49;53.50;101239.94;5014166;28;20044;-70
2023/08/15 09:14:12;;;;;;;4.43;1.60;;;;;;;29.58;54.33;101239.38;5016118;28;20030;-70
2023/08/15 09:16:46;;;;;;;6.20;1.23;;;;;;;29.46;52.85;101240.50;5009000;28;20062;-70
2023/08/15 09:19:12;;;;;;;2.08;1.05;;;;;;;29.75;51.66;101249.75;4997693;28;20088;-70
2023/08/15 09:21:37;;;;;;;2.47;1.05;;;;;;;29.77;52.30;101253.75;5005582;28;20057;-70
2023/08/15 09:24:04;;;;;;;4.78;1.23;;;;;;;29.75;51.28;101250.56;5009138;28;20092;-70
2023/08/15 09:26:33;;;;;;;2.70;1.25;;;;;;;29.27;53.03;101248.28;5011650;28;20138;-70
2023/08/15 09:28:59;;;;;;;5.25;1.40;;;;;;;29.67;51.40;101254.56;5012844;28;20668;-70
2023/08/15 09:31:24;;;;;;;4.65;2.03;;;;;;;29.35;53.16;101262.97;5006800;28;20145;-70
2023/08/15 09:33:50;;;;;;;3.05;1.48;;;;;;;29.25;53.16;101262.97;5001806;28;20672;-70
2023/08/15 09:36:15;;;;;;;7.22;1.40;;;;;;;29.18;52.20;101260.59;4992185;28;20045;-70
2023/08/15 09:38:41;;;;;;;3.42;1.30;;;;;;;29.29;54.17;101266.69;4995157;28;20072;-70
2023/08/15 09:41:11;;;;;;;3.00;1.35;;;;;;;29.45;54.11;101267.47;4998921;28;20746;-70
2023/08/15 09:43:49;;;;;;;3.03;1.30;;;;;;;29.58;51.81;101264.22;5009670;28;20038;-70
2023/08/15 09:46:15;;;;;;;4.55;1.40;;;;;;;29.77;51.37;101260.97;5003981;28;20055;-70
2023/08/15 09:48:42;;;;;;;2.92;1.45;;;;;;;29.88;50.24;101260.63;5009833;28;20897;-71
2023/08/15 09:51:11;;;;;;;2.58;1.30;;;;;;;29.32;51.94;101260.81;5001887;28;20033;-70
2023/08/15 09:53:38;;;;;;;4.10;1.92;;;;;;;28.57;52.91;101269.38;4997783;28;20030;-71
2023/08/15 09:56:04;;;;;;;3.70;1.50;;;;;;;28.48;53.88;101263.75;5006302;28;20132;-70
2023/08/15 09:58:30;;;;;;;3.33;1.60;;;;;;;28.35;52.94;101265.06;5019830;28;20050;-70
2023/08/15 10:00:57;;;;;;;7.13;2.17;;;;;;;28.64;52.64;101267.25;5023792;28;20030;-71
2023/08/15 10:03:38;;;;;;;4.80;1.50;;;;;;;28.44;53.24;101273.34;5019218;28;20021;-70
2023/08/15 10:06:06;;;;;;;3.08;1.17;;;;;;;28.64;53.87;101274.47;5005469;28;20108;-70
2023/08/15 10:08:32;;;;;;;5.32;1.55;;;;;;;28.83;54.82;101275.53;4995744;28;20037;-70
2023/08/15 10:10:58;;;;;;;4.88;1.80;;;;;;;28.82;54.17;101281.94;4999502;28;20053;-71
2023/08/15 10:13:31;;;;;;;3.75;1.60;;;;;;;28.53;55.47;101282.44;5000256;28;20029;-70
2023/08/15 10:15:59;;;;;;;5.93;1.85;;;;;;;28.97;54.25;101289.16;4998047;28;20026;-70
2023/08/15 10:18:25;;;;;;;7.93;1.42;;;;;;;29.29;51.42;101293.38;4997031;28;20048;-70
2023/08/15 10:20:52;;;;;;;3.88;1.63;;;;;;;29.75;51.57;101276.47;5000013;28;20042;-70
2023/08/15 10:23:39;;;;;;;6.60;1.73;;;;;;;29.28;52.88;101292.59;4995694;28;20034;-70
2023/08/15 10:26:05;;;;;;;3.85;1.60;;;;;;;28.80;56.04;101291.25;5001345;28;20054;-70
2023/08/15 10:28:34;;;;;;;4.15;1.80;;;;;;;28.58;56.93;101303.00;4996163;28;20034;-70
2023/08/15 10:31:00;;;;;;;5.22;1.35;;;;;;;28.59;56.77;101295.78;5005043;28;20144;-70
2023/08/15 10:33:29;;;;;;;3.63;1.42;;;;;;;28.42;56.84;101296.78;5005476;28;20034;-71
2023/08/15 10:35:54;;;;;;;5.85;1.42;;;;;;;28.38;56.86;101298.38;5003252;28;20099;-71
2023/08/15 10:38:51;;;;;;;5.15;1.52;;;;;;;28.00;57.03;101303.09;5001536;28;20037;-71
2023/08/15 10:41:21;;;;;;;4.20;1.60;;;;;;;27.99;57.23;101298.00;4999997;28;20066;-70
2023/08/15 10:43:59;;;;;;;6.25;2.30;;;;;;;28.39;56.36;101292.00;5005852;28;21579;-72
2023/08/15 10:46:29;;;;;;;6.18;1.60;;;;;;;28.39;56.09;101291.19;5001352;28;20523;-70
2023/08/15 10:49:07;;;;;;;5.68;1.63;;;;;;;28.54;51.61;101291.25;5001283;28;20030;-71
2023/08/15 10:51:38;;;;;;;5.30;1.63;;;;;;;28.57;52.33;101282.72;5002731;28;20045;-71
2023/08/15 10:54:06;;;;;;;5.80;1.83;;;;;;;28.91;53.01;101280.34;5009357;28;20026;-70
2023/08/15 10:56:34;;;;;;;6.85;1.30;;;;;;;28.79;50.84;101279.81;5002531;28;20040;-71
2023/08/15 10:59:05;;;;;;;6.80;2.05;;;;;;;28.81;51.94;101268.88;5005191;28;20064;-70
2023/08/15 11:01:31;;;;;;;5.10;1.75;;;;;;;28.54;51.72;101275.25;5003434;28;20036;-71
2023/08/15 11:03:57;;;;;;;10.73;2.00;;;;;;;29.10;53.18;101282.44;5007708;28;20380;-71
2023/08/15 11:06:23;;;;;;;4.07;1.40;;;;;;;29.19;51.82;101290.75;5003918;28;20504;-71
2023/08/15 11:08:58;;;;;;;6.35;1.42;;;;;;;29.30;50.97;101295.78;5006880;28;20060;-71
2023/08/15 11:11:24;;;;;;;7.18;2.33;;;;;;;29.31;50.42;101288.59;5004413;28;20091;-71
2023/08/15 11:13:52;;;;;;;5.85;1.50;;;;;;;29.37;50.69;101284.84;5004383;28;20037;-71
2023/08/15 11:16:22;;;;;;;7.15;1.73;;;;;;;29.36;49.09;101279.78;5002917;28;20503;-71
2023/08/15 11:18:49;;;;;;;4.30;1.88;;;;;;;29.46;49.73;101285.91;5004219;28;20030;-71